Time;durP1;ratioP1;P1;durP2;ratioP2;P2;SDS_P1;SDS_P2;PMS_P1;PMS_P2;Temp;Humidity;BMP_temperature;BMP_pressure;BME280_temperature;BME280_humidity;BME280_pressure;Samples;Min_cycle;Max_cycle;Signal;HPM_P1;HPM_P2
2023/02/07 00:00:00;;;;;;;10.90;7.83;;;;;;;;;;4997109;28;20416;-88
2023/02/07 00:02:26;;;;;;;10.83;7.53;;;;;;;;;;4996361;28;20448;-89
2023/02/07 00:04:52;;;;;;;10.83;8.27;;;;;;;;;;4996227;28;20419;-89
2023/02/07 00:07:18;;;;;;;11.57;7.97;;;;;;;;;;4995123;28;20471;-90
2023/02/07 00:09:44;;;;;;;13.23;8.17;;;;;;;;;;5010138;28;20408;-88
2023/02/07 00:12:10;;;;;;;13.03;8.43;;;;;;;;;;5009265;28;20256;-88
2023/02/07 00:14:36;;;;;;;12.43;8.53;;;;;;;;;;4991958;28;20465;-88
2023/02/07 00:17:02;;;;;;;10.67;7.33;;;;;;;;;;4992476;28;20867;-90
2023/02/07 00:19:28;;;;;;;11.50;8.30;;;;;;;;;;4992899;28;20209;-90
2023/02/07 00:21:54;;;;;;;12.40;7.50;;;;;;;;;;4995132;28;20420;-90
2023/02/07 00:24:20;;;;;;;10.83;7.77;;;;;;;;;;4992310;28;20420;-91
2023/02/07 00:26:47;;;;;;;10.40;7.23;;;;;;;;;;4992841;28;20188;-91
2023/02/07 00:29:13;;;;;;;9.90;7.60;;;;;;;;;;4992788;28;20181;-90
2023/02/07 00:31:39;;;;;;;10.70;7.43;;;;;;;;;;4992808;28;20523;-89
2023/02/07 00:34:07;;;;;;;11.63;7.70;;;;;;;;;;4991833;28;20420;-89
2023/02/07 00:36:34;;;;;;;11.27;7.20;;;;;;;;;;4990336;28;20486;-91
2023/02/07 00:39:04;;;;;;;9.93;7.27;;;-0.80;92.80;;;;;;4994184;28;20435;-91
2023/02/07 00:41:30;;;;;;;10.83;7.27;;;;;;;;;;4991657;28;20412;-89
2023/02/07 00:43:56;;;;;;;10.57;7.30;;;;;;;;;;4989913;28;20912;-90
2023/02/07 00:46:22;;;;;;;10.80;7.50;;;;;;;;;;4991325;28;20479;-90
2023/02/07 00:48:49;;;;;;;9.70;7.30;;;;;;;;;;4991892;28;20424;-90
2023/02/07 00:51:16;;;;;;;10.43;7.37;;;;;;;;;;4991454;28;20421;-90
2023/02/07 00:53:43;;;;;;;10.10;6.80;;;;;;;;;;4991834;28;20434;-89
2023/02/07 00:56:10;;;;;;;9.87;7.07;;;;;;;;;;4991463;28;20521;-90
2023/02/07 00:58:36;;;;;;;9.63;7.00;;;;;;;;;;4991367;28;20456;-90
2023/02/07 01:01:03;;;;;;;10.53;7.67;;;;;;;;;;4999955;28;20471;-90
2023/02/07 01:03:29;;;;;;;11.03;7.40;;;;;;;;;;4992239;28;20432;-90
2023/02/07 01:05:56;;;;;;;9.20;6.70;;;;;;;;;;5000038;28;20420;-90
2023/02/07 01:08:22;;;;;;;9.90;6.63;;;;;;;;;;4991839;28;20409;-90
2023/02/07 01:10:48;;;;;;;10.13;6.53;;;;;;;;;;4992428;28;20431;-89
2023/02/07 01:13:15;;;;;;;10.00;7.13;;;;;;;;;;4991922;28;20460;-91
2023/02/07 01:15:42;;;;;;;8.40;6.50;;;;;;;;;;4991088;28;20483;-89
2023/02/07 01:18:08;;;;;;;10.17;7.00;;;;;;;;;;4991770;28;20424;-88
2023/02/07 01:20:35;;;;;;;10.60;6.90;;;;;;;;;;4991940;28;20510;-89
2023/02/07 01:23:01;;;;;;;10.17;6.77;;;;;;;;;;4991913;28;20416;-90
2023/02/07 01:25:27;;;;;;;10.17;6.70;;;;;;;;;;4991705;28;20510;-90
2023/02/07 01:27:53;;;;;;;10.07;7.13;;;;;;;;;;4991349;28;20429;-89
2023/02/07 01:30:19;;;;;;;10.43;6.37;;;;;;;;;;4993046;28;20412;-88
2023/02/07 01:32:45;;;;;;;11.50;7.57;;;;;;;;;;5000470;28;20433;-92
2023/02/07 01:35:11;;;;;;;12.50;8.33;;;;;;;;;;5000739;28;20921;-90
2023/02/07 01:37:37;;;;;;;10.83;8.00;;;;;;;;;;4999328;28;20463;-88
2023/02/07 01:40:03;;;;;;;9.97;7.90;;;;;;;;;;4991941;28;20416;-91
2023/02/07 01:42:29;;;;;;;11.40;7.37;;;;;;;;;;4991723;28;20442;-90
2023/02/07 01:45:25;;;;;;;10.90;7.40;;;;;;;;;;4993697;28;20558;-90
2023/02/07 01:47:52;;;;;;;9.67;7.13;;;;;;;;;;4933055;29;20414;-90
2023/02/07 01:50:18;;;;;;;13.37;8.17;;;;;;;;;;4934404;29;20414;-89
2023/02/07 01:52:44;;;;;;;20.73;8.03;;;;;;;;;;4941554;29;20425;-89
2023/02/07 01:55:12;;;;;;;11.07;8.33;;;;;;;;;;4935186;28;20418;-89
2023/02/07 01:57:39;;;;;;;13.53;8.73;;;;;;;;;;4935412;29;20466;-88
2023/02/07 02:00:05;;;;;;;12.40;8.30;;;;;;;;;;4953742;28;20436;-87
2023/02/07 02:02:33;;;;;;;12.47;8.93;;;;;;;;;;4954467;28;20592;-87
2023/02/07 02:04:59;;;;;;;12.03;7.57;;;;;;;;;;4938510;29;20437;-87
2023/02/07 02:07:26;;;;;;;11.67;7.40;;;;;;;;;;4937799;29;20798;-89
2023/02/07 02:09:52;;;;;;;11.40;8.07;;;;;;;;;;4954417;29;20410;-87
2023/02/07 02:12:30;;;;;;;12.33;8.40;;;;;;;;;;4938246;29;20422;-88
2023/02/07 02:15:02;;;;;;;13.93;8.87;;;;;;;;;;4937462;29;20431;-87
2023/02/07 02:17:44;;;;;;;13.50;8.80;;;;;;;;;;4938098;29;20465;-87
2023/02/07 02:20:37;;;;;;;14.17;8.97;;;;;;;;;;4937886;28;20444;-87
2023/02/07 02:23:23;;;;;;;14.90;9.50;;;;;;;;;;4938234;28;20429;-87
2023/02/07 02:26:03;;;;;;;14.37;10.20;;;;;;;;;;4934846;29;20427;-87
2023/02/07 02:29:19;;;;;;;14.80;9.97;;;-1.40;95.10;;;;;;4953984;28;21000;-88
2023/02/07 02:32:04;;;;;;;13.17;9.87;;;;;;;;;;4877927;29;20426;-89
2023/02/07 02:34:33;;;;;;;15.33;9.83;;;;;;;;;;4878060;29;20461;-87
2023/02/07 02:37:06;;;;;;;14.50;9.63;;;;;;;;;;4878016;29;20516;-87
2023/02/07 02:39:37;;;;;;;15.17;8.87;;;;;;;;;;4877882;29;20469;-87
2023/02/07 02:42:08;;;;;;;10.90;7.90;;;;;;;;;;4878118;29;20779;-88
2023/02/07 02:44:46;;;;;;;13.00;8.00;;;;;;;;;;4871228;29;20433;-87
2023/02/07 02:47:13;;;;;;;11.80;7.60;;;;;;;;;;4874739;29;20486;-88
2023/02/07 02:49:40;;;;;;;11.87;7.50;;;;;;;;;;4872758;29;20421;-89
2023/02/07 02:52:06;;;;;;;11.23;7.87;;;;;;;;;;4867753;29;20449;-88
2023/02/07 02:54:34;;;;;;;10.17;7.07;;;;;;;;;;4877274;29;20433;-89
2023/02/07 02:57:00;;;;;;;10.90;7.73;;;;;;;;;;4877875;29;20989;-86
2023/02/07 02:59:35;;;;;;;10.33;7.50;;;;;;;;;;4877907;29;20457;-89
2023/02/07 03:02:22;;;;;;;11.50;7.83;;;;;;;;;;4885248;29;20195;-87
2023/02/07 03:04:56;;;;;;;10.83;7.67;;;;;;;;;;4933740;29;20927;-86
2023/02/07 03:07:28;;;;;;;11.23;7.33;;;;;;;;;;4954776;28;20435;-87
2023/02/07 03:10:01;;;;;;;14.00;8.87;;;;;;;;;;4989593;28;20426;-87
2023/02/07 03:12:33;;;;;;;13.63;9.13;;;;;;;;;;4991739;28;20416;-88
2023/02/07 03:15:22;;;;;;;12.83;8.37;;;;;;;;;;4993416;28;20418;-86
2023/02/07 03:17:53;;;;;;;13.03;8.60;;;;;;;;;;4994408;28;20459;-88
2023/02/07 03:20:26;;;;;;;14.37;8.90;;;;;;;;;;4993841;28;20421;-87
2023/02/07 03:22:53;;;;;;;14.13;8.47;;;;;;;;;;4993453;28;20416;-87
2023/02/07 03:25:20;;;;;;;13.13;8.80;;;;;;;;;;4993226;28;20419;-87
2023/02/07 03:27:47;;;;;;;13.20;8.43;;;;;;;;;;4993966;28;20420;-87
2023/02/07 03:30:15;;;;;;;14.43;9.10;;;;;;;;;;4994310;28;20420;-87
2023/02/07 03:32:50;;;;;;;14.90;9.17;;;;;;;;;;4992330;28;20418;-87
2023/02/07 03:35:21;;;;;;;15.10;9.73;;;;;;;;;;4987825;28;20420;-87
2023/02/07 03:37:53;;;;;;;13.50;8.23;;;;;;;;;;4992586;28;20472;-86
2023/02/07 03:40:20;;;;;;;11.93;7.87;;;;;;;;;;4996793;28;20844;-89
2023/02/07 03:42:47;;;;;;;12.80;8.10;;;;;;;;;;4992567;28;20515;-88
2023/02/07 03:45:15;;;;;;;14.83;8.53;;;;;;;;;;4992240;28;20452;-86
2023/02/07 03:47:41;;;;;;;11.70;7.77;;;;;;;;;;4992615;28;20905;-88
2023/02/07 03:50:07;;;;;;;13.57;9.17;;;;;;;;;;4992087;28;20467;-87
2023/02/07 03:52:33;;;;;;;11.13;7.53;;;;;;;;;;4993775;28;20482;-88
2023/02/07 03:54:59;;;;;;;13.50;8.77;;;;;;;;;;4993462;28;20424;-88
2023/02/07 03:57:25;;;;;;;12.40;8.63;;;;;;;;;;4992064;28;20527;-87
2023/02/07 03:59:51;;;;;;;13.53;8.20;;;;;;;;;;4993467;28;20185;-87
2023/02/07 04:02:17;;;;;;;12.83;9.33;;;;;;;;;;5000329;28;20232;-87
2023/02/07 04:04:43;;;;;;;14.33;9.20;;;;;;;;;;4991812;28;20507;-88
2023/02/07 04:07:10;;;;;;;15.67;9.10;;;;;;;;;;4991541;28;20448;-88
2023/02/07 04:09:36;;;;;;;13.50;9.10;;;;;;;;;;4994882;28;20423;-88
2023/02/07 04:12:03;;;;;;;12.73;8.83;;;;;;;;;;4995459;28;20420;-87
2023/02/07 04:14:28;;;;;;;13.97;9.37;;;;;;;;;;4999592;28;20432;-87
2023/02/07 04:16:54;;;;;;;14.63;9.83;;;;;;;;;;4992000;28;20468;-87
2023/02/07 04:19:20;;;;;;;15.40;10.33;;;;;;;;;;4989145;28;20181;-87
2023/02/07 04:21:47;;;;;;;14.87;9.70;;;;;;;;;;4993015;28;20196;-88
2023/02/07 04:24:13;;;;;;;18.33;10.87;;;;;;;;;;4991674;28;20483;-88
2023/02/07 04:26:39;;;;;;;15.07;9.80;;;;;;;;;;4991402;28;20424;-87
2023/02/07 04:29:05;;;;;;;13.83;10.10;;;;;;;;;;4992967;28;20769;-87
2023/02/07 04:31:31;;;;;;;15.07;10.10;;;;;;;;;;4991440;28;20419;-86
2023/02/07 04:33:57;;;;;;;13.57;8.60;;;;;;;;;;4991871;28;20462;-88
2023/02/07 04:36:23;;;;;;;13.90;8.57;;;;;;;;;;4991272;28;20212;-87
2023/02/07 04:38:49;;;;;;;15.47;9.03;;;;;;;;;;4991339;28;20428;-86
2023/02/07 04:41:15;;;;;;;11.77;8.03;;;;;;;;;;4991708;28;20431;-87
2023/02/07 04:43:41;;;;;;;14.17;9.00;;;;;;;;;;4991395;28;20457;-88
2023/02/07 04:46:08;;;;;;;14.07;9.13;;;;;;;;;;4992730;28;20424;-88
2023/02/07 04:48:36;;;;;;;13.20;8.90;;;;;;;;;;4991414;28;20896;-87
2023/02/07 04:51:02;;;;;;;13.97;8.93;;;;;;;;;;4992772;28;20416;-88
2023/02/07 04:53:28;;;;;;;11.93;8.63;;;;;;;;;;4992607;28;20877;-86
2023/02/07 04:55:54;;;;;;;13.23;8.57;;;;;;;;;;4991062;28;20610;-86
2023/02/07 04:58:21;;;;;;;11.43;8.07;;;;;;;;;;4992427;28;20409;-86
2023/02/07 05:00:47;;;;;;;12.90;8.90;;;;;;;;;;4991538;28;20417;-86
2023/02/07 05:03:13;;;;;;;13.07;8.87;;;;;;;;;;4993121;28;20408;-87
2023/02/07 05:05:40;;;;;;;13.47;9.60;;;;;;;;;;4991287;28;20464;-86
2023/02/07 05:08:06;;;;;;;14.90;10.07;;;;;;;;;;4995833;28;20460;-86
2023/02/07 05:10:32;;;;;;;12.50;8.73;;;;;;;;;;4994532;28;20181;-89
2023/02/07 05:12:58;;;;;;;15.40;9.13;;;;;;;;;;4990098;28;20424;-87
2023/02/07 05:15:24;;;;;;;13.50;8.97;;;;;;;;;;4992188;28;20830;-88
2023/02/07 05:17:51;;;;;;;12.48;8.35;;;;;;;;;;4990906;28;20211;-89
2023/02/07 05:20:17;;;;;;;12.63;8.90;;;;;;;;;;4992360;28;20170;-86
2023/02/07 05:22:43;;;;;;;14.30;9.33;;;;;;;;;;4991634;28;20417;-88
2023/02/07 05:25:09;;;;;;;15.37;9.77;;;;;;;;;;4990843;28;20478;-87
2023/02/07 05:27:36;;;;;;;13.63;8.57;;;;;;;;;;4992481;28;20196;-89
2023/02/07 05:30:03;;;;;;;12.32;8.43;;;;;;;;;;4991574;28;20421;-88
2023/02/07 05:35:13;;;;;;;12.60;8.40;;;;;;;;;;4996851;28;20184;-90
2023/02/07 05:37:39;;;;;;;13.77;8.90;;;;;;;;;;5003440;28;20192;-88
2023/02/07 05:40:05;;;;;;;11.70;8.70;;;;;;;;;;4996441;28;20205;-87
2023/02/07 05:42:31;;;;;;;12.98;8.50;;;;;;;;;;5001782;28;20268;-88
2023/02/07 05:44:57;;;;;;;12.83;8.50;;;;;;;;;;5003667;28;20546;-88
2023/02/07 05:47:23;;;;;;;11.87;8.73;;;;;;;;;;4998545;28;20515;-87
2023/02/07 05:49:49;;;;;;;14.55;9.15;;;;;;;;;;4994876;28;20424;-87
2023/02/07 05:52:15;;;;;;;16.50;9.70;;;;;;;;;;5003204;28;20169;-88
2023/02/07 05:54:41;;;;;;;12.63;8.80;;;;;;;;;;5000171;28;20176;-89
2023/02/07 05:57:07;;;;;;;14.85;8.95;;;;;;;;;;4994560;28;20459;-88
2023/02/07 05:59:33;;;;;;;15.52;9.70;;;;;;;;;;4993589;28;20299;-88
2023/02/07 06:01:59;;;;;;;19.20;13.23;;;;;;;;;;4993744;28;20252;-91
2023/02/07 06:04:25;;;;;;;13.07;9.33;;;;;;;;;;4995327;28;20900;-88
2023/02/07 06:06:51;;;;;;;16.67;10.18;;;;;;;;;;4994901;28;20185;-89
2023/02/07 06:09:17;;;;;;;14.50;9.30;;;;;;;;;;4994577;28;20192;-88
2023/02/07 06:11:43;;;;;;;12.27;8.57;;;;;;;;;;4995086;28;20523;-88
2023/02/07 06:14:09;;;;;;;14.23;9.25;;;;;;;;;;4994932;28;20571;-87
2023/02/07 06:16:35;;;;;;;13.83;9.27;;;;;;;;;;5003765;28;20268;-87
2023/02/07 06:19:01;;;;;;;14.93;9.20;;;;;;;;;;4995265;28;20434;-90
2023/02/07 06:21:27;;;;;;;14.47;9.73;;;;;;;;;;4995446;28;20416;-87
2023/02/07 06:23:53;;;;;;;12.03;8.50;;;;;;;;;;4994575;28;20905;-88
2023/02/07 06:26:20;;;;;;;14.77;9.40;;;;;;;;;;4995249;28;20181;-88
2023/02/07 06:28:46;;;;;;;13.30;8.50;;;;;;;;;;5001350;28;20251;-87
2023/02/07 06:31:12;;;;;;;16.25;9.93;;;;;;;;;;4996401;28;20586;-88
2023/02/07 06:33:38;;;;;;;15.13;9.15;;;;;;;;;;4981350;28;20581;-87
2023/02/07 06:36:04;;;;;;;12.55;9.05;;;;;;;;;;4987271;28;20201;-88
2023/02/07 06:38:30;;;;;;;13.63;8.63;;;;;;;;;;4995371;28;20224;-88
2023/02/07 06:40:56;;;;;;;15.97;10.00;;;;;;;;;;4999887;28;20662;-89
2023/02/07 06:43:22;;;;;;;17.10;11.40;;;;;;;;;;5005313;28;20504;-87
2023/02/07 06:45:48;;;;;;;16.63;11.23;;;;;;;;;;4994119;28;20754;-87
2023/02/07 06:48:14;;;;;;;17.67;12.70;;;;;;;;;;4996179;28;20317;-88
2023/02/07 06:50:40;;;;;;;17.27;11.93;;;;;;;;;;4994973;28;20200;-90
2023/02/07 06:53:06;;;;;;;32.40;21.13;;;;;;;;;;4994358;28;20429;-88
2023/02/07 06:55:35;;;;;;;55.17;35.13;;;;;;;;;;5000436;28;20416;-87
2023/02/07 06:58:01;;;;;;;33.72;21.80;;;;;;;;;;4994262;28;20468;-87
2023/02/07 07:00:27;;;;;;;18.33;12.43;;;;;;;;;;4994372;28;20257;-88
2023/02/07 07:02:53;;;;;;;14.45;9.98;;;;;;;;;;4994378;28;20753;-87
2023/02/07 07:05:19;;;;;;;11.93;8.07;;;;;;;;;;4994883;28;20180;-86
2023/02/07 07:07:45;;;;;;;13.23;9.40;;;;;;;;;;4994019;28;20429;-87
2023/02/07 07:10:11;;;;;;;11.13;7.87;;;;;;;;;;4995133;28;20419;-87
2023/02/07 07:12:37;;;;;;;13.67;8.40;;;;;;;;;;4993917;28;20404;-88
2023/02/07 07:15:04;;;;;;;12.87;8.37;;;;;;;;;;4994652;28;20412;-88
2023/02/07 07:17:30;;;;;;;13.73;7.40;;;;;;;;;;4993342;28;20197;-89
2023/02/07 07:19:56;;;;;;;10.30;7.57;;;;;;;;;;4994705;28;20439;-88
2023/02/07 07:22:22;;;;;;;9.77;7.88;;;;;;;;;;4997044;28;20464;-89
2023/02/07 07:24:49;;;;;;;8.70;6.80;;;;;;;;;;4996708;28;20189;-89
2023/02/07 07:27:15;;;;;;;9.20;7.40;;;;;;;;;;5001051;28;20200;-91
2023/02/07 07:29:41;;;;;;;9.17;6.90;;;;;;;;;;4997698;28;20719;-88
2023/02/07 07:32:07;;;;;;;13.40;9.93;;;;;;;;;;4994915;28;20336;-87
2023/02/07 07:34:33;;;;;;;57.10;34.23;;;;;;;;;;4993922;28;20173;-88
2023/02/07 07:36:59;;;;;;;161.10;86.10;;;;;;;;;;4995889;28;20645;-89
2023/02/07 07:39:25;;;;;;;41.83;25.90;;;6.80;67.10;;;;;;4994209;28;20191;-88
2023/02/07 07:41:51;;;;;;;11.87;8.60;;;;;;;;;;4994683;28;20228;-89
2023/02/07 07:44:17;;;;;;;10.07;7.90;;;;;;;;;;4993744;28;20187;-89
2023/02/07 07:46:43;;;;;;;9.20;7.27;;;;;;;;;;5009543;28;20173;-88
2023/02/07 07:49:09;;;;;;;8.70;7.00;;;;;;;;;;4994099;28;20629;-88
2023/02/07 07:51:35;;;;;;;8.67;7.47;;;;;;;;;;4993856;28;20201;-90
2023/02/07 07:54:01;;;;;;;9.07;7.50;;;;;;;;;;4995116;28;20184;-90
2023/02/07 07:56:30;;;;;;;8.60;7.70;;;;;;;;;;4993512;28;20196;-90
2023/02/07 07:58:56;;;;;;;9.30;8.00;;;;;;;;;;4991841;28;20200;-90
2023/02/07 08:01:22;;;;;;;8.43;7.27;;;;;;;;;;4986308;28;20586;-89
2023/02/07 08:03:49;;;;;;;8.67;7.77;;;;;;;;;;4996638;28;20170;-89
2023/02/07 08:06:14;;;;;;;9.80;7.97;;;;;;;;;;4993547;28;20241;-91
2023/02/07 08:08:40;;;;;;;7.77;6.97;;;;;;;;;;4985590;28;20260;-90
2023/02/07 08:11:08;;;;;;;8.33;7.50;;;19.30;53.40;;;;;;4994037;28;20177;-89
2023/02/07 08:13:35;;;;;;;8.00;7.17;;;;;;;;;;4993621;28;20252;-91
2023/02/07 08:16:01;;;;;;;7.90;7.10;;;21.40;30.40;;;;;;5014958;28;20175;-88
2023/02/07 08:18:28;;;;;;;7.95;7.05;;;;;;;;;;5016048;28;20201;-90
2023/02/07 08:20:54;;;;;;;8.15;7.35;;;;;;;;;;5015895;28;20197;-89
2023/02/07 08:23:20;;;;;;;7.30;6.60;;;;;;;;;;5004830;28;20181;-90
2023/02/07 08:25:46;;;;;;;7.50;6.75;;;;;;;;;;4999866;28;20173;-87
2023/02/07 08:28:12;;;;;;;8.82;7.93;;;25.00;25.90;;;;;;4993830;28;20173;-89
2023/02/07 08:30:38;;;;;;;8.82;7.00;;;;;;;;;;4994093;28;20169;-89
2023/02/07 08:33:04;;;;;;;7.95;7.25;;;;;;;;;;4999125;28;20260;-89
2023/02/07 08:35:31;;;;;;;7.75;7.05;;;;;;;;;;4993360;28;20170;-89
2023/02/07 08:37:57;;;;;;;8.55;7.75;;;;;;;;;;4993350;28;20292;-87
2023/02/07 08:40:24;;;;;;;8.93;8.02;;;26.60;22.70;;;;;;4995656;28;20173;-89
2023/02/07 08:42:50;;;;;;;9.35;8.45;;;;;;;;;;4995823;28;20193;-90
2023/02/07 08:45:16;;;;;;;9.32;8.43;;;;;;;;;;4992786;28;20586;-90
2023/02/07 08:47:45;;;;;;;9.45;8.55;;;26.70;22.20;;;;;;4997410;28;20189;-89
2023/02/07 08:50:14;;;;;;;9.45;8.15;;;26.30;22.70;;;;;;4994698;28;20256;-89
2023/02/07 08:52:40;;;;;;;9.65;8.75;;;;;;;;;;4992502;28;20502;-88
2023/02/07 08:55:06;;;;;;;9.93;9.02;;;;;;;;;;4992721;28;20232;-89
2023/02/07 08:57:33;;;;;;;11.38;9.82;;;;;;;;;;4993447;28;20218;-89
2023/02/07 08:59:59;;;;;;;11.80;10.70;;;;;;;;;;4992542;28;20672;-89
2023/02/07 09:02:25;;;;;;;10.85;9.75;;;25.00;23.00;;;;;;4993039;28;20725;-89
2023/02/07 09:04:51;;;;;;;10.68;9.63;;;;;;;;;;4992885;28;20181;-90
2023/02/07 09:07:18;;;;;;;10.88;9.88;;;25.30;22.70;;;;;;4992222;28;20193;-88
2023/02/07 09:09:44;;;;;;;12.10;10.90;;;;;;;;;;4974880;28;20618;-89
2023/02/07 09:12:10;;;;;;;12.80;9.40;;;;;;;;;;4982720;28;20182;-87
2023/02/07 09:14:38;;;;;;;10.50;9.50;;;25.20;23.30;;;;;;4991570;28;20177;-90
2023/02/07 09:17:04;;;;;;;9.93;9.00;;;;;;;;;;4991285;28;20554;-89
2023/02/07 09:19:30;;;;;;;9.15;8.35;;;;;;;;;;4991330;28;20622;-89
2023/02/07 09:21:56;;;;;;;9.95;8.98;;;;;;;;;;4992167;28;20231;-90
2023/02/07 09:24:23;;;;;;;10.27;9.18;;;;;;;;;;4992188;28;20173;-90
2023/02/07 09:26:49;;;;;;;10.75;9.75;;;;;;;;;;4990007;28;20181;-89
2023/02/07 09:29:15;;;;;;;10.50;9.48;;;27.40;20.60;;;;;;4992683;28;20201;-86
2023/02/07 09:31:41;;;;;;;10.38;8.75;;;;;;;;;;5010537;28;20166;-87
2023/02/07 09:34:08;;;;;;;9.57;8.55;;;;;;;;;;5011371;28;20192;-87
2023/02/07 09:36:34;;;;;;;9.77;8.88;;;;;;;;;;5009885;28;20205;-88
2023/02/07 09:39:00;;;;;;;10.75;9.70;;;;;;;;;;5018249;28;20187;-87
2023/02/07 09:41:43;;;;;;;9.75;8.85;;;29.50;20.50;;;;;;4992334;28;20672;-88
2023/02/07 09:44:31;;;;;;;9.38;8.48;;;30.20;19.90;;;;;;4997995;28;20442;-89
2023/02/07 09:47:09;;;;;;;10.23;9.13;;;30.90;21.40;;;;;;4990376;28;20209;-88
2023/02/07 09:49:44;;;;;;;10.77;9.75;;;31.40;18.90;;;;;;4991553;28;20177;-89
2023/02/07 09:52:15;;;;;;;10.00;9.10;;;31.40;18.10;;;;;;4990933;28;20178;-89
2023/02/07 09:54:44;;;;;;;8.43;7.70;;;31.40;18.40;;;;;;4990062;28;20174;-88
2023/02/07 09:57:40;;;;;;;9.15;8.35;;;31.60;29.30;;;;;;4990886;28;20201;-89
2023/02/07 10:00:17;;;;;;;8.63;7.72;;;32.30;29.80;;;;;;4989675;28;20186;-89
2023/02/07 10:02:57;;;;;;;8.50;7.75;;;32.90;17.30;;;;;;4991330;28;20180;-89
2023/02/07 10:05:40;;;;;;;10.35;7.68;;;33.20;28.60;;;;;;4991652;28;20170;-88
2023/02/07 10:08:15;;;;;;;7.43;6.72;;;33.10;16.50;;;;;;4991754;28;20208;-89
2023/02/07 10:11:01;;;;;;;7.85;7.15;;;33.10;16.30;;;;;;4991779;28;20188;-88
2023/02/07 10:14:09;;;;;;;7.75;7.05;;;33.50;16.70;;;;;;4985477;28;20753;-88
2023/02/07 10:16:54;;;;;;;7.50;6.80;;;34.50;29.90;;;;;;4970633;28;20213;-89
2023/02/07 10:19:49;;;;;;;7.13;6.53;;;34.20;15.30;;;;;;4993007;28;20215;-89
2023/02/07 10:22:21;;;;;;;6.97;6.38;;;34.30;15.80;;;;;;4995105;28;20180;-87
2023/02/07 10:25:21;;;;;;;7.30;6.60;;;34.80;24.20;;;;;;4994984;28;20516;-88
2023/02/07 10:27:47;;;;;;;7.30;6.70;;;;;;;;;;4990994;28;20177;-90
2023/02/07 10:30:24;;;;;;;6.82;6.20;;;35.60;15.20;;;;;;4995166;28;20173;-88
2023/02/07 10:32:51;;;;;;;6.70;6.10;;;35.70;27.20;;;;;;4995455;28;20189;-88
2023/02/07 10:35:23;;;;;;;6.78;6.18;;;35.70;26.20;;;;;;4996529;28;20513;-90
2023/02/07 10:37:53;;;;;;;7.25;6.65;;;35.90;14.20;;;;;;4995085;28;20221;-87
2023/02/07 10:40:37;;;;;;;7.65;6.95;;;36.00;13.70;;;;;;4994711;28;20204;-88
2023/02/07 10:43:09;;;;;;;7.43;6.80;;;35.90;13.20;;;;;;4994173;28;20176;-90
2023/02/07 10:45:35;;;;;;;39.92;33.38;;;;;;;;;;4994194;28;20215;-88
2023/02/07 10:48:01;;;;;;;33.42;29.92;;;;;;;;;;5000497;28;20665;-87
2023/02/07 10:50:28;;;;;;;7.80;7.10;;;;;;;;;;5002012;28;20171;-88
2023/02/07 10:52:55;;;;;;;7.32;6.63;;;34.20;14.10;;;;;;5002119;28;20200;-88
2023/02/07 10:55:45;;;;;;;6.68;6.10;;;34.70;14.30;;;;;;4993810;28;20173;-88
2023/02/07 10:58:23;;;;;;;7.03;6.43;;;34.80;23.40;;;;;;4993873;28;20637;-89
2023/02/07 11:00:51;;;;;;;7.55;6.85;;;35.00;13.60;;;;;;5006084;28;20184;-90
2023/02/07 11:03:20;;;;;;;6.68;6.07;;;35.40;13.70;;;;;;4995564;28;20227;-90
2023/02/07 11:05:54;;;;;;;19.20;17.38;;;35.10;12.90;;;;;;4993906;28;20172;-89
2023/02/07 11:08:34;;;;;;;9.75;8.77;;;34.50;13.50;;;;;;5008815;28;20235;-89
2023/02/07 11:11:25;;;;;;;7.60;6.90;;;34.70;14.40;;;;;;4994545;28;20176;-91
2023/02/07 11:13:53;;;;;;;8.20;7.47;;;34.90;14.30;;;;;;4990309;28;20510;-90
2023/02/07 11:16:22;;;;;;;8.38;7.68;;;35.00;14.30;;;;;;4993454;28;20548;-91
2023/02/07 11:18:53;;;;;;;8.70;8.00;;;;;;;;;;4993433;28;20178;-90
2023/02/07 11:21:29;;;;;;;9.15;8.32;;;;;;;;;;4993166;28;20617;-90
2023/02/07 11:24:11;;;;;;;9.18;8.38;;;32.30;15.10;;;;;;4993209;28;20635;-90
2023/02/07 11:26:52;;;;;;;8.65;7.85;;;32.60;14.60;;;;;;4993392;28;20201;-92
2023/02/07 11:29:20;;;;;;;8.23;7.53;;;32.00;14.40;;;;;;4984824;28;20181;-91
2023/02/07 11:31:48;;;;;;;8.05;7.25;;;31.60;14.10;;;;;;4993288;28;20189;-91
2023/02/07 11:34:27;;;;;;;8.60;7.70;;;;;;;;;;4993286;28;20177;-91
2023/02/07 11:36:53;;;;;;;10.00;7.47;;;32.20;14.30;;;;;;5003089;28;20208;-89
2023/02/07 11:39:21;;;;;;;8.57;7.78;;;32.50;14.10;;;;;;4996134;28;20165;-90
2023/02/07 11:42:16;;;;;;;8.20;7.50;;;32.80;15.00;;;;;;4993133;28;20185;-90
2023/02/07 11:44:46;;;;;;;9.10;8.20;;;33.50;14.30;;;;;;4987448;28;20501;-92
2023/02/07 11:47:18;;;;;;;16.98;13.63;;;;;;;;;;4993442;28;20197;-91
2023/02/07 11:49:49;;;;;;;71.50;53.72;;;;;;;;;;4997311;28;20582;-91
2023/02/07 11:52:15;;;;;;;14.93;13.43;;;;;;;;;;4993205;28;20178;-90
2023/02/07 11:54:47;;;;;;;7.82;7.13;;;;;;;;;;5001356;28;20173;-91
2023/02/07 11:57:16;;;;;;;7.25;6.57;;;31.20;13.20;;;;;;4985078;28;20507;-90
2023/02/07 11:59:49;;;;;;;8.00;7.25;;;30.40;13.80;;;;;;4993991;28;20281;-90
2023/02/07 12:02:25;;;;;;;6.72;6.13;;;;;;;;;;4992500;28;20193;-89
2023/02/07 12:04:53;;;;;;;6.95;6.25;;;30.90;13.50;;;;;;4991709;28;20204;-89
2023/02/07 12:07:35;;;;;;;6.85;6.25;;;31.10;13.40;;;;;;4991336;28;20599;-92
2023/02/07 12:10:12;;;;;;;6.88;6.00;;;31.00;13.20;;;;;;4981082;28;20193;-91
2023/02/07 12:12:43;;;;;;;6.28;5.72;;;;;;;;;;4992086;28;20692;-92
2023/02/07 12:15:21;;;;;;;7.28;6.57;;;;;;;;;;4992025;28;20178;-92
2023/02/07 12:17:47;;;;;;;6.70;6.10;;;;;;;;;;4991787;28;20173;-92
2023/02/07 12:20:22;;;;;;;7.15;6.50;;;28.60;13.40;;;;;;4991368;28;20232;-92
2023/02/07 12:22:54;;;;;;;6.95;6.35;;;28.10;14.20;;;;;;4980045;28;20172;-90
2023/02/07 12:25:22;;;;;;;7.45;6.75;;;28.00;14.40;;;;;;4991145;28;20272;-91
2023/02/07 12:27:54;;;;;;;7.90;7.20;;;27.40;14.50;;;;;;4991287;28;20228;-90
2023/02/07 12:30:25;;;;;;;7.13;6.43;;;;;;;;;;4991786;28;20633;-91
2023/02/07 12:32:59;;;;;;;7.63;7.03;;;;;;;;;;4992692;28;20232;-90
2023/02/07 12:35:25;;;;;;;6.72;6.13;;;;;;;;;;4993023;28;20173;-92
2023/02/07 12:37:54;;;;;;;6.60;6.00;;;;;;;;;;4992489;28;20173;-91
2023/02/07 12:40:37;;;;;;;6.50;5.90;;;;;;;;;;4992163;28;20177;-91
2023/02/07 12:43:21;;;;;;;6.85;6.20;;;;;;;;;;4992431;28;20205;-92
2023/02/07 12:45:50;;;;;;;7.05;6.45;;;;;;;;;;4992247;28;20177;-91
2023/02/07 12:48:22;;;;;;;7.10;6.40;;;;;;;;;;4992372;28;20204;-90
2023/02/07 12:51:09;;;;;;;7.32;6.63;;;25.00;15.20;;;;;;4992316;28;20203;-91
2023/02/07 12:53:35;;;;;;;7.30;6.60;;;;;;;;;;4991505;28;20180;-93
2023/02/07 12:56:04;;;;;;;7.22;6.53;;;;;;;;;;4998314;28;20273;-91
2023/02/07 12:58:44;;;;;;;7.05;6.35;;;;;;;;;;4999478;28;20529;-93
2023/02/07 13:01:17;;;;;;;7.15;6.47;;;;;;;;;;4991865;28;20177;-91
2023/02/07 13:03:55;;;;;;;6.97;6.28;;;;;;;;;;4999235;28;20180;-92
2023/02/07 13:06:48;;;;;;;6.93;6.30;;;23.80;16.50;;;;;;4991670;28;20200;-91
2023/02/07 13:09:32;;;;;;;6.75;6.10;;;;;;;;;;4992041;28;20189;-92
2023/02/07 13:12:16;;;;;;;6.10;5.47;;;;;;;;;;4991979;28;20169;-91
2023/02/07 13:14:45;;;;;;;5.72;5.13;;;;;;;;;;4992586;28;20613;-92
2023/02/07 13:17:17;;;;;;;5.28;4.80;;;;;;;;;;4992067;28;20177;-93
2023/02/07 13:19:57;;;;;;;5.30;4.80;;;;;;;;;;4994887;28;20641;-92
2023/02/07 13:22:34;;;;;;;5.38;4.82;;;;;;;;;;4992196;28;20173;-92
2023/02/07 13:25:01;;;;;;;5.28;4.78;;;23.70;14.80;;;;;;4993195;28;20173;-93
2023/02/07 13:27:28;;;;;;;5.88;5.30;;;23.60;14.90;;;;;;4991850;28;20197;-92
2023/02/07 13:29:55;;;;;;;5.30;4.80;;;23.50;14.70;;;;;;4992436;28;20189;-91
2023/02/07 13:32:26;;;;;;;6.22;5.47;;;;;;;;;;4991871;28;20276;-91
2023/02/07 13:35:04;;;;;;;5.28;4.78;;;;;;;;;;4992235;28;20180;-93
2023/02/07 13:37:45;;;;;;;5.28;4.78;;;;;;;;;;4992169;28;20321;-91
2023/02/07 13:40:52;;;;;;;6.13;5.53;;;22.40;15.40;;;;;;4971169;28;20236;-92
2023/02/07 13:43:39;;;;;;;5.32;4.82;;;22.00;15.40;;;;;;4899577;29;20224;-91
2023/02/07 13:46:25;;;;;;;5.22;4.72;;;;;;;;;;4886481;29;20275;-90
2023/02/07 13:48:57;;;;;;;5.32;4.82;;;;;;;;;;4883655;29;20185;-92
2023/02/07 13:51:23;;;;;;;5.30;4.80;;;;;;;;;;4882065;29;20180;-92
2023/02/07 13:54:10;;;;;;;7.40;5.47;;;;;;;;;;4889388;29;20192;-92
2023/02/07 13:59:41;;;;;;;5.25;4.75;;;;;;;;;;4906651;29;20542;-92
2023/02/07 14:02:16;;;;;;;5.20;4.70;;;;;;;;;;4906105;29;20561;-91
2023/02/07 14:04:58;;;;;;;5.90;5.30;;;;;;;;;;4888129;29;20180;-92
2023/02/07 14:07:30;;;;;;;6.20;5.30;;;20.70;17.30;;;;;;4890475;29;20220;-93
2023/02/07 14:09:57;;;;;;;6.10;5.30;;;18.80;16.70;;;;;;4898693;29;20276;-91
2023/02/07 14:12:23;;;;;;;5.03;4.53;;;;;;;;;;4920160;29;20183;-91
2023/02/07 14:14:51;;;;;;;6.07;5.47;;;;;;;;;;4933077;29;20180;-92
2023/02/07 14:17:26;;;;;;;5.85;5.18;;;;;;;;;;4927932;29;20246;-93
2023/02/07 14:19:56;;;;;;;5.18;4.68;;;17.30;17.10;;;;;;4966042;28;20195;-91
2023/02/07 14:22:26;;;;;;;5.30;4.80;;;17.60;17.10;;;;;;5010636;28;20210;-92
2023/02/07 14:24:58;;;;;;;5.07;4.57;;;;;;;;;;4995079;28;20572;-90
2023/02/07 14:27:27;;;;;;;5.63;5.03;;;;;;;;;;4994892;28;20263;-89